Flight Track Log - Related Links

Times and Time Zones

All times are in EDT time to prevent confusion due to time zone crossing. See the N100PU flight status page for this flight to view local times or setup timezone preferences in your user account.

Time Position Orientation Groundspeed Altitude Reporting Facility
EDT Latitude Longitude Course Direction KTS MPH feet Rate Location/Type
Tue 01:00:00 PM 40.7333 -74.1167 246° West 177 204 4,000  Level New York TRACON
Tue 01:01:06 PM 40.7833 -74.1333 346° North 210 242 6,400 2,000 Climbing New York TRACON
Tue 01:02:00 PM 40.8000 -74.2000 288° West 233 268 8,000 1,250 Climbing New York TRACON
Tue 01:03:06 PM 40.8333 -74.3000 294° West 246 283 8,900 800 Climbing New York TRACON
Tue 01:04:00 PM 40.8500 -74.3667 288° West 246 283 9,600 1,476 Climbing New York TRACON
Tue 01:05:00 PM 40.7110 -74.7726 246° West  Level Estimated
Tue 01:05:12 PM 40.8500 -74.4833 270° West 257 296 12,000  Level New York TRACON
Tue 01:07:27 PM 40.8336 -74.7011 264° West 278 320 15,700 1,662 Climbing New York Center
Tue 01:08:27 PM 40.8267 -74.7858 264° West 268 308 17,400 1,650 Climbing New York Center
Tue 01:09:27 PM 40.8208 -74.8925 266° West 262 302 19,000 1,550 Climbing New York Center
Tue 01:10:27 PM 40.8158 -74.9744 265° West 257 296 20,500 1,650 Climbing New York Center
Tue 01:11:27 PM 40.8083 -75.0672 264° West 257 296 22,300 1,800 Climbing New York Center
Tue 01:12:27 PM 40.7825 -75.1506 248° West 252 290 24,100 1,850 Climbing New York Center
Tue 01:13:27 PM 40.7519 -75.2417 246° West 252 290 26,000 1,750 Climbing New York Center
Tue 01:14:27 PM 40.7303 -75.3169 249° West 259 298 27,600 1,700 Climbing New York Center
Tue 01:15:27 PM 40.7044 -75.3944 246° West 248 285 29,400 1,400 Climbing New York Center
Tue 01:16:27 PM 40.6828 -75.4697 249° West 237 273 30,400 1,000 Climbing New York Center
Tue 01:17:27 PM 40.6542 -75.5553 246° West 242 278 31,400 1,450 Climbing New York Center
Tue 01:18:27 PM 40.6281 -75.6328 246° West 247 284 33,300 1,650 Climbing New York Center
Tue 01:19:27 PM 40.6064 -75.7025 248° West 236 272 34,700 1,250 Climbing New York Center
Tue 01:20:27 PM 40.5850 -75.7692 247° West 219 252 35,800 1,050 Climbing New York Center
Tue 01:21:27 PM 40.5633 -75.8358 247° West 207 238 36,800 750 Climbing New York Center
Tue 01:22:27 PM 40.5417 -75.9053 248° West 207 238 37,300 600 Climbing New York Center
Tue 01:23:27 PM 40.5111 -75.9822 242° Southwest 214 246 38,000 350 Climbing New York Center
Tue 01:24:27 PM 40.4869 -76.0567 247° West 219 252 38,000  Level New York Center
Tue 01:25:27 PM 40.4583 -76.1364 245° Southwest 232 267 38,000  Level New York Center
Tue 01:26:27 PM 40.4314 -76.2244 248° West 246 283 38,000  Level New York Center
Tue 01:27:27 PM 40.4003 -76.3144 246° West 262 302 38,000  Level New York Center
Tue 01:28:27 PM 40.3789 -76.4136 254° West 273 314 38,000  Level New York Center
Tue 01:29:27 PM 40.3614 -76.5158 257° West 288 331 38,000  Level New York Center
Tue 01:30:27 PM 40.3436 -76.6206 257° West 293 337 38,000  Level New York Center
Tue 01:31:27 PM 40.3242 -76.7169 255° West 293 337 38,000  Level New York Center
Tue 01:32:27 PM 40.2886 -76.8064 242° Southwest 287 330 38,000  Level New York Center
Tue 01:33:27 PM 40.2506 -76.8928 240° Southwest 281 323 38,000  Level New York Center
Tue 01:34:27 PM 40.2164 -76.9906 245° Southwest 281 323 38,000  Level New York Center
Tue 01:35:27 PM 40.1897 -77.0614 244° Southwest 281 323 38,000  Level New York Center
Tue 01:36:27 PM 40.1536 -77.1506 242° Southwest 281 323 38,000  Level New York Center
Tue 01:37:27 PM 40.1222 -77.2672 251° West 281 323 38,000  Level New York Center
Tue 01:38:27 PM 40.1192 -77.3592 268° West 286 329 38,000  Level New York Center
Tue 01:40:14 PM 40.1158 -77.5728 269° West 309 356 38,000  Level Cleveland Center
Tue 01:41:16 PM 40.1133 -77.6875 268° West 313 360 38,000  Level Cleveland Center
Tue 01:42:18 PM 40.1114 -77.8036 269° West 317 365 38,000  Level Cleveland Center
Tue 01:43:20 PM 40.1089 -77.9358 269° West 322 371 38,000  Level Cleveland Center
Tue 01:44:22 PM 40.1069 -78.0542 269° West 326 375 38,000  Level Cleveland Center
Tue 01:45:24 PM 40.1044 -78.1717 268° West 326 375 38,000  Level Cleveland Center
Tue 01:46:27 PM 40.1019 -78.2892 268° West 326 375 38,000  Level Cleveland Center
Tue 01:47:29 PM 40.0994 -78.4083 268° West 327 376 38,000  Level Cleveland Center
Tue 01:48:31 PM 40.0958 -78.5508 268° West 329 379 38,000  Level Cleveland Center
Tue 01:49:33 PM 40.0922 -78.6717 268° West 331 381 38,000  Level Cleveland Center
Tue 01:50:35 PM 40.0894 -78.7917 268° West 332 382 38,000  Level Cleveland Center
Tue 01:51:37 PM 40.0861 -78.9147 268° West 337 388 38,000  Level Cleveland Center
Tue 01:52:39 PM 40.0836 -79.0439 269° West 352 405 38,000  Level Cleveland Center
Tue 01:53:41 PM 40.0803 -79.1667 268° West 343 395 38,000  Level Cleveland Center
Tue 01:54:43 PM 40.0750 -79.3167 267° West 345 397 38,000  Level Cleveland Center
Tue 01:55:45 PM 40.0717 -79.4306 268° West 348 400 38,000  Level Cleveland Center
Tue 01:56:47 PM 40.0672 -79.5564 267° West 348 400 38,000  Level Cleveland Center
Tue 01:57:49 PM 40.0636 -79.7097 268° West 352 405 38,000  Level Cleveland Center
Tue 01:58:51 PM 40.0589 -79.8378 267° West 352 405 38,000  Level Cleveland Center
Tue 01:59:53 PM 40.0539 -79.9650 267° West 350 403 38,000  Level Cleveland Center
Tue 02:00:56 PM 40.0481 -80.0925 267° West 350 403 38,000  Level Cleveland Center
Tue 02:01:58 PM 40.0433 -80.2206 267° West 351 404 38,000  Level Cleveland Center
Tue 02:03:00 PM 40.0389 -80.3486 267° West 353 406 38,000  Level Cleveland Center
Tue 02:04:02 PM 40.0328 -80.4767 266° West 354 407 38,000  Level Cleveland Center
Tue 02:05:04 PM 40.0283 -80.6033 267° West 350 403 38,000  Level Cleveland Center
Tue 02:06:06 PM 40.0206 -80.7558 266° West 351 404 38,000  Level Cleveland Center
Tue 02:07:08 PM 40.0244 -80.8831 272° West 353 406 38,000  Level Cleveland Center
Tue 02:07:51 PM 40.0314 -80.9806 275° West 353 406 38,000  Level Indianapolis Center
Tue 02:08:53 PM 40.0431 -81.1083 277° West 351 404 38,000  Level Indianapolis Center
Tue 02:09:54 PM 40.0544 -81.2375 277° West 354 407 38,000  Level Indianapolis Center
Tue 02:10:56 PM 40.0644 -81.3656 276° West 353 406 38,000  Level Indianapolis Center
Tue 02:11:58 PM 40.0764 -81.4928 277° West 350 403 38,000  Level Indianapolis Center
Tue 02:13:00 PM 40.0878 -81.6203 277° West 350 403 38,000  Level Indianapolis Center
Tue 02:14:02 PM 40.0978 -81.7511 276° West 355 409 38,000 -97 Level Indianapolis Center
Tue 02:15:04 PM 40.1097 -81.8856 277° West 349 402 37,800 -537 Descending Indianapolis Center
Tue 02:16:05 PM 40.1200 -82.0186 276° West 365 420 36,900 -927 Descending Indianapolis Center
Tue 02:17:07 PM 40.1317 -82.1556 276° West 378 435 35,900 -919 Descending Indianapolis Center
Tue 02:18:09 PM 40.1422 -82.2931 276° West 382 440 35,000 -435 Descending Indianapolis Center
Tue 02:19:11 PM 40.1553 -82.4544 276° West 375 432 35,000  Level Indianapolis Center
Tue 02:20:13 PM 40.1647 -82.5878 275° West 372 428 35,000 -194 Level Indianapolis Center
Tue 02:21:15 PM 40.1753 -82.7194 276° West 366 421 34,600 -919 Descending Indianapolis Center
Tue 02:22:17 PM 40.1850 -82.8558 275° West 375 432 33,100 -1,452 Descending Indianapolis Center
Tue 02:23:19 PM 40.1947 -82.9911 275° West 376 433 31,600 -1,415 Descending Indianapolis Center
Tue 02:24:20 PM 40.2047 -83.1275 276° West 380 437 30,200 -1,561 Descending Indianapolis Center
Tue 02:25:22 PM 40.2172 -83.2933 276° West 385 443 28,400 -1,065 Descending Indianapolis Center
Tue 02:26:24 PM 40.2264 -83.4292 275° West 380 437 28,000 -194 Descending Indianapolis Center
Tue 02:27:26 PM 40.2356 -83.5628 275° West 375 432 28,000  Level Indianapolis Center
Tue 02:28:28 PM 40.2444 -83.6950 275° West 370 426 28,000 -435 Level Indianapolis Center
Tue 02:29:30 PM 40.2525 -83.8278 275° West 370 426 27,100 -1,258 Descending Indianapolis Center
Tue 02:30:32 PM 40.2633 -83.9972 275° West 391 450 25,400 -1,403 Descending Indianapolis Center
Tue 02:31:34 PM 40.2725 -84.1361 275° West 387 445 24,200 -1,161 Descending Indianapolis Center
Tue 02:32:36 PM 40.2806 -84.2725 274° West 380 437 23,000 -1,171 Descending Indianapolis Center
Tue 02:33:37 PM 40.2892 -84.4056 275° West 371 427 21,800 -1,171 Descending Indianapolis Center
Tue 02:34:39 PM 40.2961 -84.5381 274° West 369 425 20,600 -1,210 Descending Indianapolis Center
Tue 02:35:41 PM 40.3050 -84.6694 275° West 364 419 19,300 -1,306 Descending Indianapolis Center
Tue 02:36:43 PM 40.3131 -84.8242 274° West 359 413 17,900 -1,113 Descending Indianapolis Center
Tue 02:37:45 PM 40.3194 -84.9456 274° West 352 405 17,000 -919 Descending Indianapolis Center
Tue 02:38:47 PM 40.3261 -85.0714 274° West 349 402 16,000 -968 Descending Indianapolis Center
Tue 02:39:49 PM 40.3331 -85.1931 274° West 339 390 15,000 -968 Descending Indianapolis Center
Tue 02:40:51 PM 40.3383 -85.3128 273° West 332 382 14,000 -1,065 Descending Indianapolis Center
Tue 02:41:53 PM 40.3469 -85.4550 275° West 329 379 12,800 -1,065 Descending Indianapolis Center
Tue 02:42:55 PM 40.3522 -85.5708 273° West 324 373 11,800 -871 Descending Indianapolis Center
Tue 02:43:57 PM 40.3583 -85.6833 274° West 316 364 11,000 -387 Descending Indianapolis Center
Tue 02:44:59 PM 40.3619 -85.7892 273° West 301 346 11,000 -412 Level Indianapolis Center
Tue 02:45:39 PM 40.3672 -85.8753 275° West 298 343 10,300 -982 Descending Chicago Center
Tue 02:45:54 PM 40.3672 -85.8992 270° West 299 344 10,100 -968 Descending Chicago Center
Tue 02:46:41 PM 40.3697 -85.9814 272° West 296 341 9,300 -1,100 Descending Chicago Center
Tue 02:46:54 PM 40.3681 -86.0083 265° West 290 334 9,000 -968 Descending Chicago Center
Tue 02:47:43 PM 40.3708 -86.0825 273° West 283 326 8,300 -984 Descending Chicago Center
Tue 02:47:55 PM 40.3711 -86.1067 271° West 276 318 8,000 -968 Descending Chicago Center
Tue 02:48:45 PM 40.3728 -86.1842 272° West 281 323 7,300 -909 Descending Chicago Center
Tue 02:49:01 PM 40.3736 -86.2242 272° West 284 327 7,000 -871 Descending Chicago Center
Tue 02:49:47 PM 40.3750 -86.2864 272° West 282 325 6,400 -982 Descending Chicago Center
Tue 02:49:56 PM 40.3747 -86.3197 269° West 274 315 6,100 -1,029 Descending Chicago Center
Tue 02:50:57 PM 40.3758 -86.4125 271° West 260 299 5,200 -939 Descending Chicago Center
Tue 02:51:51 PM 40.3786 -86.4925 273° West 263 303 4,300 -1,100 Descending Chicago Center
Tue 02:51:57 PM 40.3786 -86.5081 270° West 253 291 4,100 -952 Descending Chicago Center
Tue 02:52:54 PM 40.3797 -86.5831 271° West 257 296 3,300 -783 Descending Chicago Center
Tue 02:53:52 PM 40.3811 -86.6694 271° West 230 265 2,600 -677 Descending Chicago Center
Tue 02:53:56 PM 40.3817 -86.6683 57° Northeast 248 285 2,600 -182 Level Chicago Center
Tue 02:54:58 PM 40.3872 -86.7425 276° West 229 264 2,400 -145 Descending Chicago Center
Tue 02:56:00 PM 40.3975 -86.8183 280° West 204 235 2,300 -97 Descending Chicago Center

Login

Don't have an account? Register now (free) for customized features, flight alerts, and more!